Time;durP1;ratioP1;P1;durP2;ratioP2;P2;SDS_P1;SDS_P2;PMS_P1;PMS_P2;Temp;Humidity;BMP_temperature;BMP_pressure;BME280_temperature;BME280_humidity;BME280_pressure;Samples;Min_cycle;Max_cycle;Signal;HPM_P1;HPM_P2
2024/03/30 00:00:51;;;;;;;4.35;1.45;;;;;;;13.23;42.25;94004.38;5032025;28;20048;-71
2024/03/30 00:03:17;;;;;;;4.32;1.30;;;;;;;13.17;42.75;94008.34;5031161;28;20037;-71
2024/03/30 00:05:43;;;;;;;4.22;1.30;;;;;;;13.32;42.22;94005.88;5031145;28;20057;-72
2024/03/30 00:08:08;;;;;;;6.93;1.35;;;;;;;13.33;42.53;93996.00;5031438;28;20053;-72
2024/03/30 00:10:38;;;;;;;4.63;1.30;;;;;;;13.35;42.31;94007.13;5031620;28;20417;-71
2024/03/30 00:13:05;;;;;;;3.72;1.25;;;;;;;13.37;42.22;93999.56;5031828;28;20017;-71
2024/03/30 00:15:31;;;;;;;2.00;1.42;;;;;;;13.30;42.18;93997.41;5011699;28;20577;-72
2024/03/30 00:18:00;;;;;;;3.80;1.60;;;;;;;13.25;42.28;94002.94;5010683;28;20037;-71
2024/03/30 00:20:29;;;;;;;2.78;1.02;;;;;;;13.22;42.33;94000.16;5009942;28;20308;-71
2024/03/30 00:22:55;;;;;;;2.80;1.20;;;;;;;13.15;42.97;93999.88;5011565;28;20084;-71
2024/03/30 00:25:23;;;;;;;4.80;1.13;;;;;;;13.11;42.59;94004.28;5010102;28;20437;-72
2024/03/30 00:27:48;;;;;;;2.80;1.35;;;;;;;12.92;43.08;94001.25;5011311;28;20068;-71
2024/03/30 00:30:15;;;;;;;5.63;1.33;;;;;;;12.99;43.16;94001.56;5011114;28;20030;-71
2024/03/30 00:32:41;;;;;;;4.75;2.47;;;;;;;13.13;42.88;94002.09;5011218;28;20034;-72
2024/03/30 00:35:06;;;;;;;6.65;1.20;;;;;;;13.03;42.76;93991.78;5011220;28;20495;-71
2024/03/30 00:37:32;;;;;;;3.67;1.40;;;;;;;13.16;42.50;94001.44;5011106;28;20113;-71
2024/03/30 00:39:58;;;;;;;2.42;1.27;;;;;;;13.11;42.81;94001.63;5011536;28;20063;-71
2024/03/30 00:42:23;;;;;;;3.60;1.30;;;;;;;13.08;42.85;94002.28;5011028;28;20490;-71
2024/03/30 00:44:48;;;;;;;4.30;1.50;;;;;;;13.05;42.66;94000.25;5010757;28;20040;-71
2024/03/30 00:47:14;;;;;;;2.90;1.40;;;;;;;13.05;42.69;93994.94;5010588;28;20049;-71
2024/03/30 00:49:39;;;;;;;3.08;1.67;;;;;;;13.09;42.50;93995.84;5010862;28;20452;-71
2024/03/30 00:52:05;;;;;;;2.70;1.15;;;;;;;13.08;42.70;93994.28;5011594;28;20022;-72
2024/03/30 00:54:30;;;;;;;2.83;1.50;;;;;;;13.15;42.16;93986.53;5010685;28;20489;-71
2024/03/30 00:56:55;;;;;;;4.82;1.30;;;;;;;13.20;42.23;93989.03;5009387;28;20461;-72
2024/03/30 00:59:21;;;;;;;2.08;1.23;;;;;;;13.15;42.26;93986.53;5011001;28;20084;-72
2024/03/30 01:01:50;;;;;;;2.47;1.40;;;;;;;13.14;42.19;93987.63;5010350;28;20133;-72
2024/03/30 01:04:15;;;;;;;4.70;1.50;;;;;;;13.16;42.21;93980.84;5010586;28;20026;-71
2024/03/30 01:06:42;;;;;;;3.80;1.40;;;;;;;13.26;41.90;93974.34;5011137;28;20438;-71
2024/03/30 01:09:08;;;;;;;3.75;1.23;;;;;;;13.13;42.52;93970.84;5010132;28;20038;-71
2024/03/30 01:11:34;;;;;;;4.07;1.38;;;;;;;12.98;42.46;93973.28;5010390;28;20499;-71
2024/03/30 01:14:00;;;;;;;4.47;1.50;;;;;;;12.68;43.23;93970.63;5010648;28;20034;-72
2024/03/30 01:16:26;;;;;;;2.85;1.55;;;;;;;12.87;42.93;93970.19;5010284;28;20452;-71
2024/03/30 01:18:51;;;;;;;5.80;0.93;;;;;;;12.95;42.68;93969.38;5011408;28;20459;-72
2024/03/30 01:21:17;;;;;;;6.03;1.52;;;;;;;12.88;43.14;93964.53;5010575;28;20046;-71
2024/03/30 01:23:43;;;;;;;3.88;0.90;;;;;;;12.92;42.89;93969.22;5010626;28;20046;-72
2024/03/30 01:26:12;;;;;;;4.78;1.70;;;;;;;12.85;42.94;93964.41;5010721;28;20038;-72
2024/03/30 01:28:39;;;;;;;1.98;1.20;;;;;;;12.75;43.15;93970.91;5010261;28;20577;-71
2024/03/30 01:31:05;;;;;;;4.15;1.17;;;;;;;12.71;43.13;93975.31;5010964;28;20029;-72
2024/03/30 01:33:31;;;;;;;8.70;1.67;;;;;;;12.72;43.50;93970.75;5010420;28;20453;-72
2024/03/30 01:35:56;;;;;;;6.97;1.83;;;;;;;12.72;43.92;93973.41;5010216;28;20458;-72
2024/03/30 01:38:22;;;;;;;2.75;1.67;;;;;;;12.85;43.70;93970.53;5011841;28;20417;-72
2024/03/30 01:40:49;;;;;;;2.17;1.10;;;;;;;12.79;43.74;93966.50;5014463;28;20034;-72
2024/03/30 01:43:14;;;;;;;4.47;1.25;;;;;;;12.32;44.77;93967.63;5013904;28;20081;-72
2024/03/30 01:45:42;;;;;;;1.23;1.10;;;;;;;11.66;46.30;93966.38;5014136;28;20084;-71
2024/03/30 01:48:11;;;;;;;2.00;1.27;;;;;;;11.66;46.67;93967.16;5013905;28;20522;-71
2024/03/30 01:50:39;;;;;;;2.35;1.20;;;;;;;12.12;45.50;93968.31;5013085;28;20037;-71
2024/03/30 01:53:06;;;;;;;2.55;1.30;;;;;;;12.29;44.86;93957.59;5013005;28;20030;-71
2024/03/30 01:55:32;;;;;;;3.00;1.50;;;;;;;12.39;44.44;93970.56;5012809;28;20026;-71
2024/03/30 01:58:02;;;;;;;2.03;1.13;;;;;;;12.32;44.70;93964.97;5013118;28;20404;-71
2024/03/30 02:00:28;;;;;;;2.55;1.30;;;;;;;12.20;44.84;93960.28;5011837;28;20033;-72
2024/03/30 02:02:53;;;;;;;4.07;1.00;;;;;;;12.29;44.90;93968.25;5012645;28;20066;-71
2024/03/30 02:05:20;;;;;;;2.55;1.73;;;;;;;12.35;44.65;93972.31;5012760;28;20438;-71
2024/03/30 02:07:49;;;;;;;2.05;1.20;;;;;;;12.39;44.66;93966.03;5012548;28;20057;-72
2024/03/30 02:10:14;;;;;;;1.88;1.00;;;;;;;12.29;44.95;93965.59;5011175;28;20033;-71
2024/03/30 02:12:41;;;;;;;2.25;1.25;;;;;;;12.41;44.52;93971.03;5012751;28;20387;-72
2024/03/30 02:15:07;;;;;;;3.50;1.25;;;;;;;12.45;44.79;93969.28;5012479;28;20040;-72
2024/03/30 02:17:32;;;;;;;2.40;1.15;;;;;;;12.28;45.37;93978.13;5011769;28;20034;-72
2024/03/30 02:19:58;;;;;;;4.25;1.65;;;;;;;12.13;45.78;93969.88;5012753;28;20042;-72
2024/03/30 02:22:24;;;;;;;4.22;1.75;;;;;;;11.97;46.18;93975.72;5013208;28;20076;-71
2024/03/30 02:24:49;;;;;;;3.05;1.30;;;;;;;12.18;45.37;93967.03;5013238;28;20434;-71
2024/03/30 02:27:15;;;;;;;3.88;1.50;;;;;;;12.22;45.26;93967.97;5013461;28;20034;-71
2024/03/30 02:29:46;;;;;;;2.70;1.20;;;;;;;12.06;45.98;93972.25;5013078;28;20084;-71
2024/03/30 02:32:13;;;;;;;3.72;1.55;;;;;;;11.38;47.64;93979.22;5012838;28;20112;-71
2024/03/30 02:34:39;;;;;;;4.15;1.60;;;;;;;11.73;46.74;93977.34;5013481;28;20092;-71
2024/03/30 02:37:04;;;;;;;5.07;2.45;;;;;;;11.94;46.47;93981.69;5013584;28;20025;-71
2024/03/30 02:39:30;;;;;;;4.63;2.10;;;;;;;12.12;46.14;93978.97;5013261;28;20100;-71
2024/03/30 02:41:55;;;;;;;5.25;2.17;;;;;;;12.02;46.17;93985.44;5013183;28;20400;-71
2024/03/30 02:44:21;;;;;;;3.95;2.00;;;;;;;11.87;46.63;93989.38;5013341;28;20042;-71
2024/03/30 02:46:47;;;;;;;2.75;1.88;;;;;;;11.94;46.50;93989.66;5012856;28;20499;-71
2024/03/30 02:49:13;;;;;;;2.22;1.58;;;;;;;12.12;45.92;94000.31;5012816;28;20041;-72
2024/03/30 02:51:39;;;;;;;3.22;1.55;;;;;;;12.05;46.19;93992.78;5013211;28;20022;-71
2024/03/30 02:54:04;;;;;;;3.83;1.55;;;;;;;11.94;46.43;93995.00;5013001;28;20136;-71
2024/03/30 02:56:29;;;;;;;1.90;1.30;;;;;;;11.89;46.42;93992.50;5013009;28;20061;-72
2024/03/30 02:58:55;;;;;;;3.45;1.85;;;;;;;11.92;46.04;93986.56;5012761;28;20067;-71
2024/03/30 03:01:20;;;;;;;3.60;1.30;;;;;;;12.06;45.63;93980.25;5012795;28;20026;-71
2024/03/30 03:03:46;;;;;;;3.15;1.13;;;;;;;12.08;45.41;93978.06;5012812;28;20024;-71
2024/03/30 03:06:11;;;;;;;2.25;1.15;;;;;;;11.99;45.82;93970.06;5012788;28;20041;-72
2024/03/30 03:08:36;;;;;;;1.63;1.00;;;;;;;11.98;46.09;93985.28;5011523;28;20037;-71
2024/03/30 03:11:02;;;;;;;3.95;1.42;;;;;;;12.02;45.86;93977.44;5012277;28;20062;-71
2024/03/30 03:13:27;;;;;;;1.75;1.25;;;;;;;11.07;47.58;93988.13;5012643;28;20032;-72
2024/03/30 03:15:52;;;;;;;4.07;1.38;;;;;;;11.50;47.15;93992.66;5012853;28;20084;-71
2024/03/30 03:18:18;;;;;;;4.00;1.63;;;;;;;11.68;46.42;93988.94;5012558;28;20057;-72
2024/03/30 03:20:43;;;;;;;5.10;1.40;;;;;;;11.82;46.09;93981.56;5012529;28;20372;-71
2024/03/30 03:23:09;;;;;;;1.33;1.05;;;;;;;11.92;45.81;93978.56;5012494;28;20038;-71
2024/03/30 03:25:34;;;;;;;5.60;1.60;;;;;;;11.52;46.86;93983.31;5012274;28;20053;-72
2024/03/30 03:27:59;;;;;;;7.30;1.60;;;;;;;11.47;46.75;93980.00;5013194;28;20026;-71
2024/03/30 03:30:25;;;;;;;6.28;1.48;;;;;;;11.54;47.08;93969.69;5012155;28;20398;-71
2024/03/30 03:32:50;;;;;;;6.13;1.52;;;;;;;11.75;46.06;93970.59;5012267;28;20034;-71
2024/03/30 03:35:15;;;;;;;3.17;0.93;;;;;;;11.54;46.11;93969.69;5012522;28;20084;-71
2024/03/30 03:37:41;;;;;;;2.10;1.13;;;;;;;11.59;46.75;93972.16;5011925;28;20432;-71
2024/03/30 03:40:07;;;;;;;3.92;1.40;;;;;;;11.39;47.34;93980.78;5012281;28;20061;-70
2024/03/30 03:42:32;;;;;;;3.00;1.10;;;;;;;11.32;47.36;93978.59;5012240;28;20026;-71
2024/03/30 03:44:58;;;;;;;4.13;1.30;;;;;;;11.41;46.96;93976.69;5011960;28;20439;-71
2024/03/30 03:47:23;;;;;;;3.80;1.67;;;;;;;11.47;47.10;93980.00;5011832;28;20138;-71
2024/03/30 03:49:48;;;;;;;2.45;1.10;;;;;;;11.53;46.54;93979.56;5011776;28;20037;-71
2024/03/30 03:52:14;;;;;;;1.90;1.23;;;;;;;11.54;47.20;93985.66;5012126;28;20506;-71
2024/03/30 03:54:40;;;;;;;3.58;1.58;;;;;;;11.54;46.94;93985.66;5012257;28;20479;-71
2024/03/30 03:57:05;;;;;;;5.00;1.90;;;;;;;11.57;46.54;93977.03;5011971;28;20034;-72
2024/03/30 03:59:31;;;;;;;3.00;1.50;;;;;;;11.32;47.53;93983.13;5012223;28;20038;-71
2024/03/30 04:01:56;;;;;;;4.68;1.50;;;;;;;11.49;47.31;93983.13;5011335;28;20062;-72
2024/03/30 04:04:21;;;;;;;1.90;1.70;;;;;;;11.57;46.59;93987.69;5011718;28;20375;-71
2024/03/30 04:06:47;;;;;;;3.60;1.75;;;;;;;10.90;48.72;93990.75;5012363;28;20108;-71
2024/03/30 04:09:13;;;;;;;6.47;1.52;;;;;;;11.21;47.64;93989.84;5011524;28;20044;-71
2024/03/30 04:11:38;;;;;;;3.13;1.20;;;;;;;11.40;47.61;93991.09;5011608;28;20037;-72
2024/03/30 04:14:04;;;;;;;4.13;2.00;;;;;;;11.51;46.90;93992.41;5011570;28;20060;-71
2024/03/30 04:16:29;;;;;;;3.13;1.70;;;;;;;11.67;46.49;93999.91;5011527;28;20032;-71
2024/03/30 04:18:54;;;;;;;3.33;1.70;;;;;;;11.68;46.75;94001.47;5011757;28;20028;-71
2024/03/30 04:21:20;;;;;;;3.78;1.60;;;;;;;11.67;46.70;93998.03;5011152;28;20372;-71
2024/03/30 04:23:48;;;;;;;3.58;2.60;;;;;;;11.31;47.39;94000.19;5011677;28;20069;-71
2024/03/30 04:26:18;;;;;;;4.75;2.30;;;;;;;11.42;46.77;93994.25;5011077;28;20045;-71
2024/03/30 04:28:44;;;;;;;4.10;1.73;;;;;;;11.52;47.10;93995.84;5011673;28;20080;-71
2024/03/30 04:31:10;;;;;;;5.22;1.70;;;;;;;11.64;46.67;93988.00;5011164;28;20037;-71
2024/03/30 04:33:35;;;;;;;2.70;1.20;;;;;;;11.75;46.17;93991.91;5011817;28;20017;-71
2024/03/30 04:36:02;;;;;;;10.00;1.50;;;;;;;11.77;46.50;93989.72;5011052;28;20045;-71
2024/03/30 04:38:28;;;;;;;5.10;1.55;;;;;;;11.77;46.62;93989.72;5010784;28;20046;-72
2024/03/30 04:41:01;;;;;;;2.13;1.30;;;;;;;11.80;46.62;93989.06;5010840;28;20458;-71
2024/03/30 04:43:27;;;;;;;2.90;1.30;;;;;;;11.71;46.68;93969.66;5010952;28;20103;-71
2024/03/30 04:45:53;;;;;;;1.88;1.13;;;;;;;11.76;46.31;93977.47;5011379;28;20034;-71
2024/03/30 04:48:19;;;;;;;2.97;1.15;;;;;;;11.84;46.82;93981.22;5011416;28;20645;-72
2024/03/30 04:50:45;;;;;;;3.30;1.85;;;;;;;11.91;46.80;93979.66;5010959;28;20037;-71
2024/03/30 04:53:25;;;;;;;3.38;1.52;;;;;;;11.93;46.26;93982.78;5010503;28;20034;-71
2024/03/30 04:55:58;;;;;;;5.25;1.98;;;;;;;12.07;46.46;93993.28;5010387;28;20040;-71
2024/03/30 04:58:25;;;;;;;5.63;1.92;;;;;;;11.98;46.86;93987.94;5010958;28;20037;-71
2024/03/30 05:00:52;;;;;;;5.50;2.10;;;;;;;12.00;46.64;93992.97;5011270;28;20088;-72
2024/03/30 05:03:18;;;;;;;9.77;4.75;;;;;;;11.10;49.23;93997.38;5010990;28;20053;-71
2024/03/30 05:05:45;;;;;;;11.55;3.45;;;;;;;11.52;48.48;93999.28;5010533;28;20057;-71
2024/03/30 05:08:11;;;;;;;8.50;4.38;;;;;;;11.84;47.58;93998.00;5010805;28;20038;-72
2024/03/30 05:10:38;;;;;;;11.32;3.83;;;;;;;11.98;47.34;94006.59;5011062;28;20022;-72
2024/03/30 05:13:07;;;;;;;27.23;4.63;;;;;;;11.70;47.83;93994.72;5012086;28;20021;-72
2024/03/30 05:15:36;;;;;;;7.38;3.72;;;;;;;11.84;47.76;94008.66;5035351;28;20041;-72
2024/03/30 05:18:01;;;;;;;7.25;3.15;;;;;;;11.89;47.94;94005.84;5034354;28;20033;-72
2024/03/30 05:23:33;;;;;;;7.57;3.42;;;;;;;12.40;47.45;94010.25;5031936;28;20037;-72
2024/03/30 05:26:00;;;;;;;9.07;4.00;;;;;;;12.27;47.63;94008.56;5031923;28;20041;-71
2024/03/30 05:28:28;;;;;;;11.80;4.68;;;;;;;12.47;47.38;94015.88;5023706;28;20030;-71
2024/03/30 05:30:55;;;;;;;10.18;3.75;;;;;;;12.36;48.06;94013.88;5015083;28;20096;-71
2024/03/30 05:33:23;;;;;;;15.05;4.68;;;;;;;12.76;47.16;94022.41;5014570;28;20036;-72
2024/03/30 05:35:50;;;;;;;10.50;5.97;;;;;;;12.63;47.25;94010.03;5014372;28;20034;-72
2024/03/30 05:38:16;;;;;;;15.43;5.55;;;;;;;12.96;46.69;94013.63;5014029;28;20062;-71
2024/03/30 05:40:43;;;;;;;10.68;4.95;;;;;;;13.10;45.97;94005.41;5014352;28;20034;-71
2024/03/30 05:43:08;;;;;;;12.18;4.70;;;;;;;13.36;45.95;94006.00;5014003;28;20034;-71
2024/03/30 05:45:35;;;;;;;12.50;4.90;;;;;;;13.34;46.04;94010.91;5014658;28;20563;-72
2024/03/30 05:48:01;;;;;;;16.27;5.32;;;;;;;13.42;46.00;94003.94;5013837;28;20048;-71
2024/03/30 05:50:28;;;;;;;13.52;5.57;;;;;;;13.41;46.05;94007.72;5014223;28;20046;-71
2024/03/30 05:52:53;;;;;;;14.38;5.72;;;;;;;12.73;47.48;94015.81;5014483;28;20041;-71
2024/03/30 05:55:19;;;;;;;16.30;7.03;;;;;;;12.78;48.34;94012.19;5013911;28;20101;-72
2024/03/30 05:57:46;;;;;;;26.48;7.15;;;;;;;12.96;47.80;94012.88;5014687;28;20053;-72
2024/03/30 06:00:14;;;;;;;14.88;7.18;;;;;;;13.10;47.76;93995.53;5013996;28;20038;-71
2024/03/30 06:02:41;;;;;;;11.57;6.10;;;;;;;13.28;47.66;94020.22;5013993;28;20054;-71
2024/03/30 06:05:07;;;;;;;15.88;7.10;;;;;;;12.93;48.18;94005.50;5013632;28;20072;-71
2024/03/30 06:07:33;;;;;;;13.93;7.13;;;;;;;13.25;47.72;94012.88;5014250;28;20045;-71
2024/03/30 06:10:00;;;;;;;20.15;7.35;;;;;;;13.53;47.46;94010.47;5014322;28;20426;-71
2024/03/30 06:12:25;;;;;;;16.02;8.70;;;;;;;13.67;46.26;94011.00;5013649;28;20088;-71
2024/03/30 06:14:51;;;;;;;18.23;8.75;;;;;;;13.66;45.94;94010.22;5013773;28;20124;-72
2024/03/30 06:17:16;;;;;;;26.23;9.45;;;;;;;13.70;46.77;94013.78;5013988;28;20410;-72
2024/03/30 06:19:41;;;;;;;20.75;9.10;;;;;;;13.65;46.60;94000.63;5013500;28;20396;-72
2024/03/30 06:22:07;;;;;;;21.45;8.10;;;;;;;13.92;45.88;94012.69;5014166;28;20053;-71
2024/03/30 06:24:36;;;;;;;14.13;6.82;;;;;;;13.79;46.13;94010.28;5012757;28;20026;-71
2024/03/30 06:27:09;;;;;;;16.75;6.80;;;;;;;14.02;46.03;94006.91;5013777;28;20164;-72
2024/03/30 06:29:38;;;;;;;15.05;7.35;;;;;;;14.25;45.01;94003.84;5013325;28;20034;-72
2024/03/30 06:32:04;;;;;;;20.92;7.93;;;;;;;14.29;45.72;94002.84;5013454;28;20069;-71
2024/03/30 06:34:33;;;;;;;12.77;6.57;;;;;;;14.21;45.70;93993.03;5013794;28;20033;-71
2024/03/30 06:36:59;;;;;;;20.55;7.65;;;;;;;14.44;44.61;94006.78;5013662;28;20034;-72
2024/03/30 06:39:25;;;;;;;16.88;7.03;;;;;;;14.53;44.08;94000.25;5013215;28;20108;-71
2024/03/30 06:44:34;;;;;;;14.93;5.88;;;;;;;14.81;43.72;94007.66;5013278;28;20041;-71
2024/03/30 06:47:00;;;;;;;14.45;6.45;;;;;;;14.92;44.16;94006.84;5012914;28;20411;-71
2024/03/30 06:49:25;;;;;;;17.13;6.53;;;;;;;15.18;42.83;94016.44;5013230;28;20595;-71
2024/03/30 06:51:51;;;;;;;9.73;5.90;;;;;;;15.42;42.08;94014.50;5013512;28;20486;-71
2024/03/30 06:54:16;;;;;;;16.98;8.52;;;;;;;15.47;42.34;94018.88;5013095;28;20045;-72
2024/03/30 06:56:42;;;;;;;13.63;5.63;;;;;;;15.37;42.44;94006.69;5013053;28;20037;-71
2024/03/30 06:59:08;;;;;;;20.13;7.05;;;;;;;15.24;42.36;94007.06;5012820;28;20042;-71
2024/03/30 07:01:33;;;;;;;20.35;5.97;;;;;;;15.13;42.58;94009.41;5012977;28;20550;-72
2024/03/30 07:04:00;;;;;;;12.73;5.28;;;;;;;15.50;42.12;94004.78;5013148;28;20423;-72
2024/03/30 07:06:26;;;;;;;16.13;5.50;;;;;;;15.26;41.61;94002.91;5012673;28;20042;-72
2024/03/30 07:08:52;;;;;;;12.23;5.32;;;;;;;15.58;42.07;94001.22;5011587;28;20045;-72
2024/03/30 07:11:21;;;;;;;13.80;4.47;;;;;;;15.91;40.18;94011.72;5012453;28;20129;-71
2024/03/30 07:13:47;;;;;;;16.00;5.53;;;;;;;16.06;39.96;94008.31;5013010;28;20030;-72
2024/03/30 07:16:12;;;;;;;11.50;4.65;;;;;;;16.11;39.83;94016.09;5012631;28;20437;-71
2024/03/30 07:18:38;;;;;;;11.77;3.60;;;;;;;16.15;39.13;94019.66;5012947;28;20050;-72
2024/03/30 07:21:03;;;;;;;12.80;3.95;;;;;;;15.99;39.53;94018.06;5012366;28;20088;-71
2024/03/30 07:23:29;;;;;;;11.55;3.83;;;;;;;16.26;39.77;94023.41;5012172;28;20433;-71
2024/03/30 07:25:55;;;;;;;6.82;3.33;;;;;;;16.04;39.67;94023.94;5012258;28;20042;-72
2024/03/30 07:28:20;;;;;;;9.10;3.17;;;;;;;16.26;39.71;94028.78;5012131;28;20394;-72
2024/03/30 07:30:48;;;;;;;7.05;2.83;;;;;;;16.41;38.21;94032.66;5012478;28;20022;-71
2024/03/30 07:33:14;;;;;;;9.55;3.83;;;;;;;16.61;38.39;94020.13;5011838;28;20037;-71
2024/03/30 07:35:39;;;;;;;10.88;3.58;;;;;;;16.41;38.30;94031.84;5011595;28;20061;-72
2024/03/30 07:38:05;;;;;;;8.32;2.60;;;;;;;16.38;38.69;94027.94;5012015;28;20071;-71
2024/03/30 07:40:30;;;;;;;9.13;3.08;;;;;;;16.41;38.95;94031.84;5012257;28;20030;-72
2024/03/30 07:42:55;;;;;;;8.38;2.63;;;;;;;16.58;38.36;94031.53;5012258;28;20401;-71
2024/03/30 07:45:21;;;;;;;14.18;3.65;;;;;;;16.60;38.44;94016.66;5012059;28;20080;-71
2024/03/30 07:47:46;;;;;;;9.77;3.50;;;;;;;16.65;38.31;94026.34;5011255;28;20478;-72
2024/03/30 07:50:12;;;;;;;9.85;3.30;;;;;;;16.37;39.06;94025.63;5011970;28;20041;-72
2024/03/30 07:52:38;;;;;;;14.38;3.63;;;;;;;16.64;38.90;94020.19;5011809;28;20030;-72
2024/03/30 07:55:05;;;;;;;6.55;2.83;;;;;;;16.13;38.13;94021.13;5012101;28;20014;-72
2024/03/30 07:57:32;;;;;;;17.70;4.20;;;;;;;16.00;39.02;94019.59;5011948;28;20042;-71
2024/03/30 07:59:57;;;;;;;12.13;3.00;;;;;;;16.28;38.69;94013.09;5012015;28;20038;-72
2024/03/30 08:02:22;;;;;;;6.18;2.53;;;;;;;16.33;38.97;94020.16;5011993;28;20044;-72
2024/03/30 08:04:49;;;;;;;7.63;2.83;;;;;;;16.55;38.72;94014.22;5011234;28;20034;-72
2024/03/30 08:07:15;;;;;;;7.32;2.90;;;;;;;16.59;38.58;94016.97;5011332;28;20022;-71
2024/03/30 08:09:40;;;;;;;7.50;2.72;;;;;;;16.48;38.32;94016.72;5012099;28;20072;-72
2024/03/30 08:12:05;;;;;;;7.65;2.83;;;;;;;16.48;38.38;94016.72;5011530;28;20038;-72
2024/03/30 08:14:31;;;;;;;12.13;3.35;;;;;;;16.59;38.78;94011.59;5011858;28;20444;-72
2024/03/30 08:16:57;;;;;;;11.38;2.67;;;;;;;16.58;38.33;94010.81;5011514;28;20477;-72
2024/03/30 08:19:23;;;;;;;4.32;2.95;;;;;;;16.67;38.25;94016.06;5011063;28;20109;-72
2024/03/30 08:21:48;;;;;;;6.70;1.92;;;;;;;16.61;37.31;94015.53;5011600;28;20034;-72
2024/03/30 08:24:13;;;;;;;8.05;2.08;;;;;;;16.74;37.68;94008.16;5011047;28;20038;-72
2024/03/30 08:26:39;;;;;;;9.63;3.15;;;;;;;16.88;37.45;94005.81;5011139;28;20041;-72
2024/03/30 08:29:04;;;;;;;5.68;2.45;;;;;;;16.90;37.02;94005.47;5011491;28;20454;-72
2024/03/30 08:31:29;;;;;;;8.77;2.35;;;;;;;16.78;36.84;94014.38;5011109;28;20253;-72
2024/03/30 08:33:56;;;;;;;6.47;2.53;;;;;;;16.60;38.07;94007.81;5011448;28;20396;-72
2024/03/30 08:36:22;;;;;;;8.18;2.50;;;;;;;16.76;37.48;94011.28;5010946;28;20107;-72
2024/03/30 08:38:47;;;;;;;6.35;2.83;;;;;;;17.00;37.14;94005.72;5010969;28;20041;-72
2024/03/30 08:41:13;;;;;;;7.75;1.92;;;;;;;16.86;37.05;94000.03;5010950;28;20030;-72
2024/03/30 08:43:38;;;;;;;8.73;1.70;;;;;;;16.73;37.05;93998.53;5011390;28;20040;-72
2024/03/30 08:46:04;;;;;;;7.55;2.17;;;;;;;16.77;36.69;93986.75;5011505;28;20046;-72
2024/03/30 08:48:32;;;;;;;7.05;2.63;;;;;;;17.00;36.95;93996.88;5010623;28;20388;-72
2024/03/30 08:50:57;;;;;;;7.78;2.85;;;;;;;17.08;36.96;93991.31;5011041;28;20079;-72
2024/03/30 08:53:22;;;;;;;9.38;2.72;;;;;;;17.17;36.98;93985.78;5010616;28;20025;-72
2024/03/30 08:56:00;;;;;;;10.68;3.38;;;;;;;17.23;36.56;93986.28;5010801;28;20036;-72
2024/03/30 08:58:26;;;;;;;12.95;2.88;;;;;;;17.06;37.63;93980.13;5010999;28;20026;-72
2024/03/30 09:00:52;;;;;;;15.07;4.13;;;;;;;17.20;37.59;93981.63;5011269;28;20022;-71
2024/03/30 09:03:17;;;;;;;14.60;3.13;;;;;;;17.33;38.30;93977.69;5010932;28;20026;-72
2024/03/30 09:05:46;;;;;;;12.27;4.55;;;;;;;17.01;37.53;93966.22;5010381;28;20076;-72
2024/03/30 09:08:12;;;;;;;8.57;2.65;;;;;;;17.11;36.92;93971.78;5010404;28;20038;-72
2024/03/30 09:10:37;;;;;;;15.65;5.82;;;;;;;17.34;37.27;93965.81;5010481;28;20052;-72
2024/03/30 09:13:03;;;;;;;9.85;3.47;;;;;;;17.48;36.24;93964.19;5010791;28;20025;-71
2024/03/30 09:15:28;;;;;;;6.07;2.28;;;;;;;17.54;37.21;93959.31;5010295;28;20462;-72
2024/03/30 09:17:55;;;;;;;6.30;2.13;;;;;;;17.62;36.16;93963.72;5011012;28;20069;-72
2024/03/30 09:20:20;;;;;;;9.18;2.00;;;;;;;17.62;35.26;93955.63;5010084;28;20037;-72
2024/03/30 09:22:45;;;;;;;6.28;2.05;;;;;;;17.56;34.60;93954.34;5008811;28;20403;-72
2024/03/30 09:25:14;;;;;;;10.02;2.33;;;;;;;17.55;35.58;93961.63;5010750;28;20038;-71
2024/03/30 09:27:41;;;;;;;5.93;2.08;;;;;;;17.70;35.05;93959.25;5010639;28;20022;-72
2024/03/30 09:30:08;;;;;;;9.35;2.58;;;;;;;17.82;35.18;93946.44;5010541;28;20037;-72
2024/03/30 09:32:36;;;;;;;9.32;3.17;;;;;;;18.08;35.03;93942.34;5010087;28;20470;-72
2024/03/30 09:35:04;;;;;;;12.15;2.92;;;;;;;18.22;35.62;93950.66;5008670;28;20034;-72
2024/03/30 09:37:30;;;;;;;11.48;3.05;;;;;;;18.27;35.47;93936.91;5008738;28;20406;-72
2024/03/30 09:39:55;;;;;;;11.25;2.70;;;;;;;18.38;34.92;93937.88;5009422;28;20079;-72
2024/03/30 09:42:42;;;;;;;11.75;2.95;;;;;;;18.44;35.02;93937.22;5009247;28;20037;-72
2024/03/30 09:45:09;;;;;;;11.45;2.55;;;;;;;18.36;34.72;93929.38;5009297;28;20049;-72
2024/03/30 09:47:39;;;;;;;9.05;2.80;;;;;;;18.34;35.00;93932.41;5007569;28;20046;-72
2024/03/30 09:50:06;;;;;;;6.88;3.40;;;;;;;18.32;35.44;93929.31;5005981;28;20668;-72
2024/03/30 09:52:34;;;;;;;9.45;2.80;;;;;;;18.28;34.94;93928.50;5007594;28;20440;-75
2024/03/30 09:55:08;;;;;;;11.02;3.50;;;;;;;18.31;34.43;93921.59;5008094;28;20060;-71
2024/03/30 09:57:36;;;;;;;6.18;2.30;;;;;;;18.48;33.22;93915.72;5027420;28;20311;-72
2024/03/30 10:00:05;;;;;;;3.97;1.30;;;;;;;18.39;32.50;93913.28;5029301;28;20063;-72
2024/03/30 10:02:30;;;;;;;5.10;1.50;;;;;;;18.42;32.73;93906.41;5031407;28;20053;-72
2024/03/30 10:04:56;;;;;;;10.70;1.85;;;;;;;18.45;32.75;93897.59;5032420;28;20494;-72
2024/03/30 10:07:30;;;;;;;6.28;1.73;;;;;;;18.48;33.23;93899.56;5031763;28;20080;-72
2024/03/30 10:10:01;;;;;;;3.47;1.45;;;;;;;18.53;33.50;93899.25;5032164;28;20501;-72
2024/03/30 10:17:16;;;;;;;4.25;1.73;;;;;;;18.68;33.91;93892.16;5031124;28;20030;-72
2024/03/30 10:19:42;;;;;;;7.00;1.70;;;;;;;18.80;33.82;93890.09;5031232;28;20025;-72
2024/03/30 10:22:08;;;;;;;4.40;1.80;;;;;;;18.94;33.60;93889.53;5031343;28;20025;-72
2024/03/30 10:24:34;;;;;;;7.63;1.63;;;;;;;19.01;33.83;93886.16;5031515;28;20033;-72
2024/03/30 10:27:00;;;;;;;7.18;2.95;;;;;;;19.14;33.18;93887.47;5028985;28;20463;-72
2024/03/30 10:29:25;;;;;;;6.85;1.58;;;;;;;19.06;33.55;93880.44;5031833;28;20116;-72
2024/03/30 10:31:51;;;;;;;12.23;2.72;;;;;;;19.07;32.52;93881.97;5033081;28;20037;-72
2024/03/30 10:34:16;;;;;;;6.82;1.63;;;;;;;19.03;33.36;93875.78;5032957;28;20020;-72
2024/03/30 10:36:42;;;;;;;6.25;1.77;;;;;;;18.94;33.35;93872.56;5033443;28;20014;-72
2024/03/30 10:39:07;;;;;;;8.73;1.58;;;;;;;19.13;36.68;93870.53;5033158;28;20037;-71
2024/03/30 10:41:33;;;;;;;10.52;1.70;;;;;;;19.28;32.88;93860.69;5033736;28;20483;-72
2024/03/30 10:43:59;;;;;;;3.53;1.50;;;;;;;19.30;32.14;93844.94;5033917;28;20339;-72
2024/03/30 10:46:25;;;;;;;4.63;1.92;;;;;;;19.41;32.27;93848.53;5030032;28;20118;-71
2024/03/30 10:48:51;;;;;;;7.05;2.30;;;;;;;19.54;32.33;93847.19;5032034;28;20061;-71
2024/03/30 10:51:18;;;;;;;5.75;2.00;;;;;;;19.41;32.39;93848.53;5032351;28;20030;-72
2024/03/30 10:53:43;;;;;;;6.82;1.30;;;;;;;19.42;32.51;93844.69;5031737;28;20025;-71
2024/03/30 10:56:09;;;;;;;7.07;2.05;;;;;;;19.56;32.66;93844.09;5030527;28;20033;-71
2024/03/30 10:58:37;;;;;;;6.10;1.52;;;;;;;19.56;33.05;93842.19;5031552;28;20498;-71
2024/03/30 11:01:04;;;;;;;8.60;1.90;;;;;;;19.54;32.17;93828.31;5031261;28;20038;-72
2024/03/30 11:03:31;;;;;;;4.85;1.85;;;;;;;19.64;32.14;93827.66;5031832;28;20533;-71
2024/03/30 11:05:58;;;;;;;9.68;1.60;;;;;;;19.73;31.61;93828.13;5031335;28;20021;-71
2024/03/30 11:08:26;;;;;;;10.38;2.50;;;;;;;19.72;31.45;93821.16;5032543;28;20036;-71
2024/03/30 11:10:52;;;;;;;7.97;1.60;;;;;;;19.81;31.87;93817.38;5031362;28;20038;-72
2024/03/30 11:13:17;;;;;;;9.43;1.45;;;;;;;20.01;31.84;93822.22;5032328;28;20040;-71
2024/03/30 11:15:43;;;;;;;7.88;1.45;;;;;;;20.08;31.38;93822.28;5031857;28;20091;-71
2024/03/30 11:18:15;;;;;;;15.15;1.50;;;;;;;20.10;31.81;93811.09;5032057;28;20143;-71
2024/03/30 11:20:58;;;;;;;5.70;1.63;;;;;;;20.18;32.42;93804.66;5032263;28;20066;-71
2024/03/30 11:23:35;;;;;;;5.03;1.58;;;;;;;20.23;30.94;93800.84;5032402;28;20053;-71
2024/03/30 11:26:09;;;;;;;6.05;1.77;;;;;;;20.21;31.36;93793.09;5031995;28;20238;-71
2024/03/30 11:28:56;;;;;;;7.80;1.67;;;;;;;20.12;31.51;93795.31;5032090;28;20562;-71
2024/03/30 11:31:29;;;;;;;9.68;2.17;;;;;;;20.18;31.66;93791.16;5031552;28;20041;-72
2024/03/30 11:34:06;;;;;;;6.53;1.63;;;;;;;20.26;30.92;93789.28;5031544;28;20567;-72
2024/03/30 11:37:01;;;;;;;9.10;1.52;;;;;;;20.29;31.35;93783.13;5031554;28;20575;-71
2024/03/30 11:39:32;;;;;;;12.03;1.70;;;;;;;20.51;31.00;93774.78;5031845;28;20116;-72